Latest Coastal Weather Observations for Montague Island

IDN60701

Issued at 6:12 am EDT Sunday 1 February 2015 (issued every 10 minutes, with the page automatically refreshed every 10 minutes)

About coastal observations | Map of coastal stations | Coastal observations for NSW | Marine services | Other Formats
Station Details ID: 069017 Name: MONTAGUE ISLAND LIGHTHOUSE Lat: -36.25 Lon: 150.23 Height: 52.0 m
Data from the previous 72 hours. | See also: Recent months at Montague Island
Date/Time
EDT
Temp

°C
Wind Pressure Rain
since 9am
mm
Weather Cloud Vis
km
Sea
Height
m
Swell
Dir
 
Speed
knots
Gust
knots
hPa Trend Height
m
Period
s
Dir
01/06:00am 18.2 SW 9 11 1008.7 - 0.0 - - - - - - -
01/05:30am 18.1 SW 10 12 1008.3 - 0.0 - - - - - - -
01/05:00am 18.1 SSW 10 14 1008.1 - 0.0 - - - - - - -
01/04:30am 18.1 SW 8 10 1008.1 - 0.0 - - - - - - -
01/04:00am 18.2 SW 9 11 1008.0 - 0.0 - - - - - - -
01/03:30am 18.4 WSW 8 12 1008.1 - 0.0 - - - - - - -
01/03:00am 18.9 SW 13 16 1008.2 - 0.0 - - - - - - -
01/02:30am 18.9 SW 12 15 1008.1 - 0.0 - - - - - - -
01/02:00am 19.1 SW 15 18 1008.1 - 0.0 - - - - - - -
01/01:30am 19.2 SW 14 16 1008.3 - 0.0 - - - - - - -
01/01:00am 19.2 SSW 12 15 1008.4 - 0.0 - - - - - - -
01/12:30am 19.4 SW 12 14 1008.6 - 0.0 - - - - - - -
01/12:00am 19.6 SSW 12 16 1009.0 - 0.0 - - - - - - -
 
Date/Time
EDT
Temp

°C
Wind Pressure Rain
since 9am
mm
Weather Cloud Vis
km
Sea
Height
m
Swell
Dir
 
Speed
knots
Gust
knots
hPa Trend Height
m
Period
s
Dir
31/11:30pm 19.8 SSW 11 13 1009.1 - 0.0 - - - - - - -
31/11:00pm 20.0 SW 12 16 1009.2 - 0.0 - - - - - - -
31/10:30pm 20.3 SW 16 20 1009.2 - 0.0 - - - - - - -
31/10:00pm 20.2 SSW 19 24 1008.7 - 0.0 - - - - - - -
31/09:30pm 20.4 SSW 22 27 1008.2 - 0.0 - - - - - - -
31/09:00pm 20.5 SSW 25 30 1007.6 - 0.0 - - - - - - -
31/08:30pm 20.7 SSW 26 31 1007.1 - 0.0 - - - - - - -
31/08:00pm 20.8 SSW 22 28 1006.8 - 0.0 - - - - - - -
31/07:30pm 20.9 S 21 26 1006.6 - 0.0 - - - - - - -
31/07:00pm 21.3 SSW 24 29 1006.1 - 0.0 - - - - - - -
31/06:30pm 21.6 SSW 23 28 1005.9 - 0.0 - - - - - - -
31/06:00pm 22.2 SSW 22 27 1005.7 - 0.0 - - - - - - -
31/05:30pm 21.7 SSW 22 26 1005.5 - 0.0 - - - - - - -
31/05:00pm 22.1 SSW 21 26 1005.4 - 0.0 - - - - - - -
31/04:30pm 22.3 S 17 21 1005.6 - 0.0 - - - - - - -
31/04:00pm 23.4 S 16 20 1005.7 - 0.0 - - - - - - -
31/03:30pm 23.1 S 16 20 1005.7 - 0.0 - - - - - - -
31/03:00pm 24.2 SSW 15 19 1005.7 - 0.0 - - - - - - -
31/02:30pm 23.6 S 13 16 1005.9 - 0.0 - - - - - - -
31/02:00pm 23.1 SSW 12 16 1005.9 - 0.0 - - - - - - -
31/01:30pm 22.2 SSW 9 12 1006.3 - 0.0 - - - - - - -
31/01:00pm 22.5 SW 10 13 1006.5 - 0.0 - - - - - - -
31/12:30pm 23.1 SW 14 17 1006.6 - 0.0 - - - - - - -
31/12:00pm 22.7 WSW 7 9 1007.0 - 0.0 - - - - - - -
31/11:30am 21.4 WSW 10 13 1007.1 - 0.0 - - - - - - -
31/11:00am 20.9 W 5 7 1007.2 - 0.0 - - - - - - -
31/10:30am 21.2 WSW 5 8 1007.4 - 0.0 - - - - - - -
31/10:00am 19.7 WSW 5 7 1007.2 - 0.0 - - - - - - -
31/09:30am 19.1 W 8 10 1007.3 - 0.0 - - - - - - -
31/09:00am 18.5 W 9 12 1007.2 - 0.0 - - - - - - -
31/08:30am 17.9 WNW 9 11 1007.1 - 0.0 - - - - - - -
31/08:00am 17.7 WNW 9 11 1006.9 - 0.0 - - - - - - -
31/07:30am 17.7 W 6 8 1006.6 - 0.0 - - - - - - -
31/07:00am 17.6 WSW 8 11 1006.3 - 0.0 - - - - - - -
31/06:30am 17.6 WSW 11 14 1006.1 - 0.0 - - - - - - -
31/06:00am 17.7 WSW 11 14 1005.9 - 0.0 - - - - - - -
31/05:30am 17.8 SW 12 15 1005.6 - 0.0 - - - - - - -
31/05:00am 17.8 WSW 15 18 1005.6 - 0.0 - - - - - - -
31/04:30am 17.9 SW 15 19 1005.6 - 0.0 - - - - - - -
31/04:00am 18.0 WSW 16 19 1005.6 - 0.0 - - - - - - -
31/03:30am 17.9 WSW 13 16 1005.8 - 0.0 - - - - - - -
31/03:00am 17.8 SW 15 18 1006.0 - 0.0 - - - - - - -
31/02:30am 17.8 SW 17 20 1005.9 - 0.0 - - - - - - -
31/02:00am 17.9 SW 17 20 1006.2 - 0.0 - - - - - - -
31/01:30am 17.8 WSW 16 19 1006.4 - 0.0 - - - - - - -
31/01:00am 17.9 WSW 16 20 1006.8 - 0.0 - - - - - - -
31/12:30am 17.9 WSW 19 23 1006.8 - 0.0 - - - - - - -
31/12:00am 18.0 WSW 20 25 1007.1 - 0.0 - - - - - - -
 
Date/Time
EDT
Temp

°C
Wind Pressure Rain
since 9am
mm
Weather Cloud Vis
km
Sea
Height
m
Swell
Dir
 
Speed
knots
Gust
knots
hPa Trend Height
m
Period
s
Dir
30/11:30pm 18.0 WSW 21 26 1007.2 - 0.0 - - - - - - -
30/11:00pm 18.2 SW 21 26 1007.4 - 0.0 - - - - - - -
30/10:30pm 18.3 WSW 21 26 1007.4 - 0.0 - - - - - - -
30/10:00pm 18.5 WSW 22 27 1007.4 - 0.0 - - - - - - -
30/09:30pm 18.6 WSW 23 27 1007.2 - 0.0 - - - - - - -
30/09:00pm 18.8 SW 25 31 1006.8 - 0.0 - - - - - - -
30/08:30pm 18.9 WSW 23 28 1006.7 - 0.0 - - - - - - -
30/08:00pm 19.1 SW 19 23 1006.8 - 0.0 - - - - - - -
30/07:30pm 19.2 SW 23 28 1006.6 - 0.0 - - - - - - -
30/07:00pm 19.1 WSW 25 29 1006.1 - 0.0 - - - - - - -
30/06:30pm 19.2 SW 26 30 1005.8 - 0.0 - - - - - - -
30/06:00pm 19.8 SW 20 25 1005.8 - 0.0 - - - - - - -
30/05:30pm 20.0 WSW 18 22 1005.7 - 0.0 - - - - - - -
30/05:00pm 20.6 SW 21 31 1005.7 - 0.0 - - - - - - -
30/04:55pm 20.4 SW 24 32 1005.7 - 0.0 - - - - - - -
30/04:30pm 20.3 SSW 29 36 1005.3 - 0.0 - - - - - - -
30/04:00pm 20.1 SSW 25 33 1005.5 - 0.0 - - - - - - -
30/03:30pm 20.5 SSW 23 33 1005.6 - 0.0 - - - - - - -
30/03:25pm 20.6 SSW 23 33 1005.7 - 0.0 - - - - - - -
30/03:00pm 20.1 SW 25 33 1005.5 - 0.0 - - - - - - -
30/02:52pm 20.2 SW 19 31 1005.8 - 0.0 - - - - - - -
30/02:30pm 20.4 SW 24 30 1005.8 - 0.0 - - - - - - -
30/02:00pm 21.8 SW 23 29 1005.9 - 0.0 - - - - - - -
30/01:30pm 20.9 SW 29 38 1005.9 - 0.0 - - - - - - -
30/01:00pm 20.3 WSW 27 32 1006.1 - 0.0 - - - - - - -
30/12:30pm 20.2 SW 32 37 1006.2 - 0.0 - - - - - - -
30/12:00pm 20.8 SW 25 35 1006.3 - 0.0 - - - - - - -
30/11:30am 19.4 SW 25 31 1006.8 - 0.0 - - - - - - -
30/11:00am 18.8 SW 29 35 1006.9 - 0.0 - - - - - - -
30/10:30am 18.0 WSW 28 35 1007.0 - 0.0 - - - - - - -
30/10:00am 17.5 WSW 26 36 1007.3 - 0.0 - - - - - - -
30/09:30am 17.1 WSW 29 35 1007.5 - 0.0 - - - - - - -
30/09:00am 17.2 WSW 26 33 1007.8 - 0.0 - - - - - - -
30/08:30am 16.8 WSW 25 31 1007.9 - 0.0 - - - - - - -
30/08:00am 16.6 WSW 25 31 1008.0 - 0.0 - - - - - - -
30/07:30am 16.2 WSW 26 32 1008.0 - 0.0 - - - - - - -
30/07:00am 16.3 SW 28 34 1007.9 - 0.0 - - - - - - -
30/06:30am 16.1 WSW 25 31 1007.8 - 0.0 - - - - - - -
30/06:00am 16.3 SW 28 34 1007.7 - 0.0 - - - - - - -
30/05:30am 16.3 SW 33 42 1007.5 - 0.0 - - - - - - -
30/05:00am 16.3 SW 31 38 1007.6 - 0.0 - - - - - - -
30/04:30am 16.2 SW 28 39 1007.9 - 0.0 - - - - - - -
30/04:26am 16.3 SW 26 39 1007.9 - 0.0 - - - - - - -
30/04:00am 16.3 SW 26 34 1008.1 - 0.0 - - - - - - -
30/03:30am 16.3 SW 27 34 1008.4 - 0.0 - - - - - - -
30/03:00am 16.4 SW 25 32 1008.7 - 0.0 - - - - - - -
30/02:30am 16.1 WSW 24 30 1009.3 - 0.0 - - - - - - -
30/02:00am 16.3 WSW 24 29 1009.5 - 0.0 - - - - - - -
30/01:30am 16.3 SW 28 35 1009.6 - 0.0 - - - - - - -
30/01:00am 16.4 SW 29 35 1009.9 - 0.0 - - - - - - -
30/12:30am 16.6 SW 31 38 1010.4 - 0.0 - - - - - - -
30/12:00am 16.5 SW 30 37 1010.4 - 0.0 - - - - - - -
 
Date/Time
EDT
Temp

°C
Wind Pressure Rain
since 9am
mm
Weather Cloud Vis
km
Sea
Height
m
Swell
Dir
 
Speed
knots
Gust
knots
hPa Trend Height
m
Period
s
Dir
29/11:30pm 16.4 WSW 27 33 1010.8 - 0.0 - - - - - - -
29/11:00pm 16.6 SW 30 37 1011.1 - 0.0 - - - - - - -
29/10:30pm 16.7 SW 27 35 1011.5 - 0.0 - - - - - - -
29/10:00pm 16.8 SW 30 38 1011.6 - 0.0 - - - - - - -
29/09:30pm 16.9 SW 30 35 1011.7 - 0.0 - - - - - - -
29/09:00pm 17.0 SW 26 34 1011.9 - 0.0 - - - - - - -
29/08:30pm 17.3 SW 30 37 1011.5 - 0.0 - - - - - - -
29/08:00pm 17.6 SW 23 30 1011.5 - 0.0 - - - - - - -
29/07:33pm 18.0 SW 27 37 1011.5 - 0.0 - - - - - - -
29/07:30pm 18.1 SW 28 37 1011.4 - 0.0 - - - - - - -
29/07:00pm 18.3 SW 28 38 1011.2 - 0.0 - - - - - - -
29/06:30pm 18.6 SSW 26 33 1011.2 - 0.0 - - - - - - -
29/06:00pm 18.7 SW 26 34 1011.2 - 0.0 - - - - - - -
29/05:44pm 18.7 SSW 29 40 1011.1 - 0.0 - - - - - - -
29/05:30pm 19.4 SSW 33 42 1010.9 - 0.0 - - - - - - -
29/05:00pm 18.6 SSW 35 43 1011.3 - 0.0 - - - - - - -
29/04:30pm 19.8 SSW 32 41 1011.0 - 0.0 - - - - - - -
29/04:00pm 19.0 SSW 33 39 1011.5 - 0.0 - - - - - - -
29/03:30pm 19.4 SSW 29 36 1011.7 - 0.0 - - - - - - -
29/03:18pm 19.4 SSW 22 33 1011.8 - 0.0 - - - - - - -
29/03:00pm 20.1 SW 25 31 1012.0 - 0.0 - - - - - - -
29/02:30pm 20.1 SW 28 34 1011.8 - 0.0 - - - - - - -
29/02:00pm 19.6 SSW 28 37 1012.0 - 0.0 - - - - - - -
29/01:30pm 20.0 SSW 25 32 1012.4 - 0.0 - - - - - - -
29/01:00pm 19.7 SSW 26 32 1013.2 - 0.0 - - - - - - -
29/12:30pm 19.3 SSW 24 31 1013.5 - 0.0 - - - - - - -
29/12:00pm 19.4 S 29 36 1013.8 - 0.0 - - - - - - -
29/11:35am 19.1 SSW 30 41 1013.5 - 0.0 - - - - - - -
29/11:30am 19.0 SSW 28 37 1013.5 - 0.0 - - - - - - -
29/11:08am 18.9 SSW 24 34 1013.8 - 0.0 - - - - - - -
29/11:00am 19.1 SSW 24 32 1013.9 - 0.0 - - - - - - -
29/10:30am 18.3 SW 25 32 1013.9 - 0.0 - - - - - - -
29/10:01am 17.8 SW 24 34 1014.0 - 0.0 - - - - - - -
29/10:00am 17.7 SSW 25 34 1013.9 - 0.0 - - - - - - -
29/09:30am 17.4 SW 28 36 1013.6 - 0.0 - - - - - - -
29/09:00am 16.6 SW 26 31 1014.0 - 14.4 Recent precip. - - - - - -
29/08:30am 15.6 SW 25 31 1013.7 - 14.4 - - - - - - -
29/08:00am 14.9 SW 26 31 1013.9 - 13.8 - - - - - - -
29/07:30am 15.5 SW 27 33 1013.4 - 13.6 - - - - - - -
29/07:00am 15.4 SW 29 34 1013.0 - 13.6 - - - - - - -
29/06:30am 15.4 SW 27 35 1012.9 - 13.6 - - - - - - -

Other Formats:

Comma delimited format used in spreadsheet applications
http://www.bom.gov.au/fwo/IDN60701/IDN60701.94939.axf

JavaScript Object Notation format (JSON) in row-major order
http://www.bom.gov.au/fwo/IDN60701/IDN60701.94939.json